createdAt,value
2019-04-01T00:04:22.529Z,1.50
2019-04-01T00:06:51.115Z,2.73
2019-04-01T00:09:19.665Z,2.40
2019-04-01T00:11:48.294Z,1.70
2019-04-01T00:14:16.905Z,1.97
2019-04-01T00:16:45.884Z,1.80
2019-04-01T00:19:17.537Z,1.30
2019-04-01T00:21:49.336Z,2.00
2019-04-01T00:24:17.892Z,1.90
2019-04-01T00:26:48.115Z,1.70
2019-04-01T00:29:19.713Z,2.07
2019-04-01T00:31:48.351Z,2.37
2019-04-01T00:34:16.930Z,2.10
2019-04-01T00:36:45.514Z,1.70
2019-04-01T00:39:14.999Z,1.70
2019-04-01T00:41:48.636Z,2.47
2019-04-01T00:44:17.566Z,1.80
2019-04-01T00:46:49.383Z,2.10
2019-04-01T00:49:18.189Z,1.80
2019-04-01T00:51:49.979Z,2.13
2019-04-01T00:54:18.587Z,2.20
2019-04-01T00:56:47.214Z,2.13
2019-04-01T00:59:17.469Z,1.77
2019-04-01T01:01:49.569Z,2.20
2019-04-01T01:04:18.179Z,2.37
2019-04-01T01:06:49.756Z,2.80
2019-04-01T01:09:18.396Z,2.33
2019-04-01T01:11:47.201Z,2.20
2019-04-01T01:14:17.360Z,2.70
2019-04-01T01:16:47.819Z,2.40
2019-04-01T01:19:16.543Z,1.70
2019-04-01T01:21:45.153Z,1.92
2019-04-01T01:24:13.775Z,1.90
2019-04-01T01:26:42.394Z,2.17
2019-04-01T01:29:11.002Z,2.57
2019-04-01T01:31:39.619Z,2.40
2019-04-01T01:34:08.231Z,1.77
2019-04-01T01:36:36.848Z,2.70
2019-04-01T01:39:06.479Z,2.50
2019-04-01T01:41:35.098Z,2.00
2019-04-01T01:44:04.338Z,2.60
2019-04-01T01:46:33.055Z,2.60
2019-04-01T01:49:01.983Z,3.03
2019-04-01T01:51:30.596Z,2.17
2019-04-01T01:53:59.203Z,2.50
2019-04-01T01:56:27.820Z,2.50
2019-04-01T01:58:56.429Z,2.33
2019-04-01T02:01:25.051Z,2.40
2019-04-01T02:03:53.676Z,2.03
2019-04-01T02:06:22.292Z,2.43
2019-04-01T02:08:51.318Z,2.10
2019-04-01T02:11:20.850Z,2.00
2019-04-01T02:13:49.873Z,2.30
2019-04-01T02:16:18.486Z,1.70
2019-04-01T02:18:47.099Z,2.72
2019-04-01T02:21:15.703Z,1.87
2019-04-01T02:23:47.403Z,2.90
2019-04-01T02:26:17.563Z,3.08
2019-04-01T02:28:49.347Z,2.15
2019-04-01T02:31:17.960Z,2.50
2019-04-01T02:33:48.114Z,2.62
2019-04-01T02:36:18.287Z,2.33
2019-04-01T02:38:49.587Z,2.57
2019-04-01T02:41:18.368Z,2.20
2019-04-01T02:43:46.998Z,1.90
2019-04-01T02:46:15.629Z,2.65
2019-04-01T02:48:44.542Z,1.98
2019-04-01T02:51:13.161Z,2.42
2019-04-01T02:53:41.801Z,4.08
2019-04-01T02:56:10.405Z,2.30
2019-04-01T02:58:39.022Z,3.22
2019-04-01T03:01:07.584Z,2.47
2019-04-01T03:03:36.232Z,2.22
2019-04-01T03:06:04.856Z,2.70
2019-04-01T03:08:33.461Z,2.27
2019-04-01T03:11:02.101Z,2.42
2019-04-01T03:13:30.714Z,2.90
2019-04-01T03:15:59.337Z,3.20
2019-04-01T03:18:27.946Z,2.47
2019-04-01T03:20:56.655Z,2.40
2019-04-01T03:23:25.370Z,3.25
2019-04-01T03:25:53.978Z,1.77
2019-04-01T03:28:22.599Z,2.00
2019-04-01T03:30:51.241Z,2.98
2019-04-01T03:33:20.285Z,2.10
2019-04-01T03:35:48.874Z,2.77
2019-04-01T03:38:17.484Z,3.70
2019-04-01T03:40:52.153Z,3.53
2019-04-01T03:43:20.771Z,2.10
2019-04-01T03:45:49.383Z,2.20
2019-04-01T03:48:17.934Z,3.40
2019-04-01T03:50:48.058Z,2.30
2019-04-01T03:53:19.359Z,3.47
2019-04-01T03:55:47.941Z,3.25
2019-04-01T03:58:18.043Z,4.20
2019-04-01T04:00:49.608Z,4.05
2019-04-01T04:03:18.190Z,3.70
2019-04-01T04:05:49.876Z,3.47
2019-04-01T04:08:18.437Z,3.95
2019-04-01T04:10:47.080Z,3.15
2019-04-01T04:13:16.022Z,3.27
2019-04-01T04:15:45.083Z,3.55
2019-04-01T04:18:13.759Z,3.00
2019-04-01T04:20:42.445Z,3.02
2019-04-01T04:23:11.157Z,2.90
2019-04-01T04:25:39.896Z,3.15
2019-04-01T04:28:08.525Z,3.30
2019-04-01T04:30:37.222Z,3.30
2019-04-01T04:33:05.815Z,3.00
2019-04-01T04:35:34.548Z,2.85
2019-04-01T04:38:03.150Z,2.95
2019-04-01T04:40:31.767Z,3.45
2019-04-01T04:43:00.369Z,2.77
2019-04-01T04:45:28.976Z,2.75
2019-04-01T04:47:57.603Z,2.90
2019-04-01T04:50:26.311Z,2.95
2019-04-01T04:52:54.873Z,2.65
2019-04-01T04:55:23.638Z,3.65
2019-04-01T04:57:52.247Z,2.58
2019-04-01T05:00:21.370Z,2.40
2019-04-01T05:02:49.976Z,3.35
2019-04-01T05:05:19.010Z,2.83
2019-04-01T05:07:47.640Z,2.65
2019-04-01T05:10:16.713Z,3.65
2019-04-01T05:12:48.258Z,3.35
2019-04-01T05:15:19.657Z,3.33
2019-04-01T05:17:48.781Z,3.52
2019-04-01T05:20:17.505Z,3.00
2019-04-01T05:22:49.200Z,2.87
2019-04-01T05:25:18.224Z,3.02
2019-04-01T05:27:51.952Z,3.25
2019-04-01T05:30:20.666Z,3.42
2019-04-01T05:32:52.790Z,3.87
2019-04-01T05:35:22.699Z,3.40
2019-04-01T05:37:51.510Z,3.05
2019-04-01T05:40:20.229Z,2.67
2019-04-01T05:42:49.036Z,2.50
2019-04-01T05:45:17.647Z,4.03
2019-04-01T05:47:47.999Z,4.40
2019-04-01T05:50:18.254Z,2.92
2019-04-01T05:52:50.174Z,2.65
2019-04-01T05:55:19.159Z,3.47
2019-04-01T05:57:47.869Z,3.45
2019-04-01T06:00:20.785Z,3.65
2019-04-01T06:02:48.700Z,3.12
2019-04-01T06:05:17.729Z,3.02
2019-04-01T06:07:46.660Z,3.08
2019-04-01T06:10:18.340Z,3.27
2019-04-01T06:12:47.272Z,3.05
2019-04-01T06:15:17.844Z,3.33
2019-04-01T06:17:46.469Z,4.20
2019-04-01T06:20:15.588Z,3.35
2019-04-01T06:22:47.385Z,3.20
2019-04-01T06:25:19.179Z,3.67
2019-04-01T06:27:47.787Z,4.50
2019-04-01T06:30:16.500Z,3.20
2019-04-01T06:32:45.319Z,3.67
2019-04-01T06:35:14.333Z,2.70
2019-04-01T06:37:43.144Z,3.70
2019-04-01T06:40:12.263Z,2.93
2019-04-01T06:42:40.978Z,2.40
2019-04-01T06:45:10.098Z,3.07
2019-04-01T06:47:38.707Z,2.97
2019-04-01T06:50:07.523Z,2.43
2019-04-01T06:52:36.134Z,2.80
2019-04-01T06:55:06.122Z,3.07
2019-04-01T06:57:35.025Z,2.73
2019-04-01T07:00:03.703Z,3.73
2019-04-01T07:02:32.324Z,5.33
2019-04-01T07:05:01.045Z,5.30
2019-04-01T07:07:29.757Z,4.80
2019-04-01T07:09:58.363Z,4.33
2019-04-01T07:12:27.003Z,3.60
2019-04-01T07:14:55.614Z,5.70
2019-04-01T07:17:24.221Z,4.20
2019-04-01T07:19:52.942Z,4.13
2019-04-01T07:22:21.864Z,4.30
2019-04-01T07:24:50.574Z,5.30
2019-04-01T07:27:19.294Z,5.30
2019-04-01T07:29:47.900Z,4.60
2019-04-01T07:32:18.152Z,3.10
2019-04-01T07:34:49.841Z,4.30
2019-04-01T07:37:18.861Z,5.80
2019-04-01T07:39:47.681Z,5.33
2019-04-01T07:42:16.387Z,5.30
2019-04-01T07:44:45.098Z,2.83
2019-04-01T07:47:13.809Z,5.40
2019-04-01T07:49:42.514Z,3.23
2019-04-01T07:52:11.230Z,2.67
2019-04-01T07:54:39.836Z,2.90
2019-04-01T07:57:08.447Z,2.53
2019-04-01T07:59:37.164Z,2.20
2019-04-01T08:02:05.869Z,2.70
2019-04-01T08:04:34.480Z,1.87
2019-04-01T08:07:03.203Z,1.90
2019-04-01T08:09:31.918Z,1.57
2019-04-01T08:12:00.533Z,1.80
2019-04-01T08:14:29.184Z,3.10
2019-04-01T08:16:58.731Z,1.80
2019-04-01T08:19:27.520Z,1.70
2019-04-01T08:21:56.234Z,1.63
2019-04-01T08:24:25.171Z,1.87
2019-04-01T08:26:53.875Z,2.10
2019-04-01T08:29:30.121Z,1.70
2019-04-01T08:31:52.935Z,1.57
2019-04-01T08:34:21.648Z,1.70
2019-04-01T08:36:50.262Z,1.40
2019-04-01T08:39:19.380Z,1.97
2019-04-01T08:41:48.099Z,1.30
2019-04-01T08:44:18.146Z,1.30
2019-04-01T08:46:49.643Z,1.87
2019-04-01T08:49:18.251Z,1.90
2019-04-01T08:51:50.037Z,1.50
2019-04-01T08:54:18.744Z,1.60
2019-04-01T08:56:47.558Z,1.30
2019-04-01T08:59:16.503Z,1.20
2019-04-01T09:01:45.114Z,1.47
2019-04-01T09:04:13.953Z,1.90
2019-04-01T09:06:42.557Z,1.63
2019-04-01T09:09:11.163Z,1.43
2019-04-01T09:11:39.786Z,1.33
2019-04-01T09:14:08.378Z,1.20
2019-04-01T09:16:38.158Z,1.63
2019-04-01T09:19:06.828Z,1.10
2019-04-01T09:21:35.541Z,1.30
2019-04-01T09:24:04.256Z,1.53
2019-04-01T09:26:32.861Z,0.97
2019-04-01T09:29:01.776Z,1.70
2019-04-01T09:31:30.493Z,1.30
2019-04-01T09:33:59.101Z,1.10
2019-04-01T09:36:28.115Z,0.97
2019-04-01T09:38:56.732Z,2.60
2019-04-01T09:41:25.336Z,1.20
2019-04-01T09:43:53.945Z,1.10
2019-04-01T09:46:22.553Z,1.20
2019-04-01T09:48:51.574Z,1.27
2019-04-01T09:51:20.185Z,1.47
2019-04-01T09:53:48.793Z,1.67
2019-04-01T09:56:17.399Z,1.20
2019-04-01T09:58:46.137Z,1.20
2019-04-01T10:01:14.954Z,1.27
2019-04-01T10:03:43.991Z,0.90
2019-04-01T10:06:12.592Z,1.30
2019-04-01T10:08:42.807Z,1.00
2019-04-01T10:11:12.844Z,0.90
2019-04-01T10:13:41.611Z,1.10
2019-04-01T10:16:10.223Z,1.10
2019-04-01T10:18:38.836Z,0.80
2019-04-01T10:21:07.849Z,1.43
2019-04-01T10:23:36.400Z,2.13
2019-04-01T10:26:05.068Z,1.10
2019-04-01T10:28:33.889Z,1.10
2019-04-01T10:31:02.694Z,1.17
2019-04-01T10:33:31.307Z,1.00
2019-04-01T10:35:59.919Z,1.20
2019-04-01T10:38:28.732Z,1.10
2019-04-01T10:40:57.346Z,1.13
2019-04-01T10:43:26.064Z,1.20
2019-04-01T10:45:54.663Z,0.90
2019-04-01T10:48:23.414Z,1.40
2019-04-01T10:50:52.058Z,1.17
2019-04-01T10:53:20.798Z,1.33
2019-04-01T10:55:49.416Z,1.43
2019-04-01T10:58:18.090Z,1.30
2019-04-01T11:00:48.320Z,1.00
2019-04-01T11:03:19.728Z,1.57
2019-04-01T11:05:48.609Z,1.37
2019-04-01T11:08:17.211Z,1.33
2019-04-01T11:10:47.449Z,1.30
2019-04-01T11:13:16.587Z,1.23
2019-04-01T11:15:45.313Z,1.00
2019-04-01T11:18:13.919Z,1.10
2019-04-01T11:20:42.727Z,1.10
2019-04-01T11:23:11.338Z,0.90
2019-04-01T11:25:40.360Z,0.97
2019-04-01T11:28:09.378Z,1.10
2019-04-01T11:30:37.998Z,1.20
2019-04-01T11:33:07.806Z,1.20
2019-04-01T11:35:36.847Z,1.33
2019-04-01T11:38:05.463Z,1.00
2019-04-01T11:40:34.067Z,0.90
2019-04-01T11:43:04.977Z,1.40
2019-04-01T11:45:33.142Z,1.30
2019-04-01T11:48:01.779Z,0.80
2019-04-01T11:50:30.777Z,1.10
2019-04-01T11:52:59.564Z,1.00
2019-04-01T11:55:28.114Z,1.07
2019-04-01T11:57:56.784Z,1.27
2019-04-01T12:00:26.400Z,1.27
2019-04-01T12:02:55.129Z,1.60
2019-04-01T12:05:23.736Z,1.10
2019-04-01T12:07:52.873Z,1.33
2019-04-01T12:10:21.892Z,1.13
2019-04-01T12:12:51.027Z,2.33
2019-04-01T12:15:19.771Z,1.30
2019-04-01T12:17:48.369Z,1.23
2019-04-01T12:20:16.990Z,0.90
2019-04-01T12:22:46.210Z,0.90
2019-04-01T12:25:15.132Z,1.00
2019-04-01T12:27:45.135Z,0.90
2019-04-01T12:30:16.259Z,0.80
2019-04-01T12:32:46.717Z,1.07
2019-04-01T12:35:19.344Z,0.83
2019-04-01T12:37:48.264Z,1.27
2019-04-01T12:40:20.149Z,1.10
2019-04-01T12:42:50.980Z,1.30
2019-04-01T12:45:19.827Z,0.90
2019-04-01T12:47:48.845Z,0.90
2019-04-01T12:50:17.561Z,1.10
2019-04-01T12:52:49.245Z,0.90
2019-04-01T12:55:17.863Z,1.10
2019-04-01T12:57:48.618Z,1.70
2019-04-01T13:00:17.649Z,1.20
2019-04-01T13:02:46.259Z,1.40
2019-04-01T13:05:16.609Z,1.20
2019-04-01T13:07:45.432Z,1.33
2019-04-01T13:10:14.253Z,1.43
2019-04-01T13:12:46.467Z,1.30
2019-04-01T13:15:15.765Z,1.00
2019-04-01T13:17:45.027Z,1.83
2019-04-01T13:20:14.074Z,1.13
2019-04-01T13:22:42.984Z,3.03
2019-04-01T13:25:11.678Z,9.27
2019-04-01T13:27:40.254Z,1.60
2019-04-01T13:30:09.478Z,1.20
2019-04-01T13:32:38.053Z,1.17
2019-04-01T13:35:06.950Z,1.30
2019-04-01T13:37:35.530Z,1.40
2019-04-01T13:40:04.818Z,1.30
2019-04-01T13:42:33.391Z,1.67
2019-04-01T13:45:02.544Z,1.33
2019-04-01T13:47:31.129Z,1.23
2019-04-01T13:49:59.663Z,1.70
2019-04-01T13:52:28.246Z,1.20
2019-04-01T13:54:56.821Z,1.93
2019-04-01T13:57:25.381Z,1.43
2019-04-01T13:59:53.939Z,1.33
2019-04-01T14:02:22.504Z,1.20
2019-04-01T14:04:51.061Z,1.20
2019-04-01T14:07:20.555Z,1.30
2019-04-01T14:09:50.752Z,1.47
2019-04-01T14:12:19.395Z,1.30
2019-04-01T14:14:47.984Z,1.73
2019-04-01T14:17:18.075Z,1.50
2019-04-01T14:19:48.191Z,1.30
2019-04-01T14:22:20.263Z,1.20
2019-04-01T14:24:49.177Z,1.30
2019-04-01T14:27:17.719Z,1.47
2019-04-01T14:29:46.306Z,1.33
2019-04-01T14:32:18.308Z,1.47
2019-04-01T14:34:50.171Z,1.30
2019-04-01T14:37:25.129Z,1.50
2019-04-01T14:39:47.899Z,1.10
2019-04-01T14:42:16.523Z,1.57
2019-04-01T14:44:53.755Z,1.10
2019-04-01T14:47:22.303Z,1.47
2019-04-01T14:49:51.327Z,1.50
2019-04-01T14:52:31.696Z,1.40
2019-04-01T14:54:50.259Z,1.73
2019-04-01T14:57:18.812Z,1.70
2019-04-01T14:59:47.382Z,1.33
2019-04-01T15:02:17.448Z,1.60
2019-04-01T15:04:46.193Z,1.57
2019-04-01T15:07:18.280Z,1.70
2019-04-01T15:09:49.994Z,1.70
2019-04-01T15:12:18.547Z,1.50
2019-04-01T15:14:47.124Z,1.60
2019-04-01T15:17:16.588Z,2.00
2019-04-01T15:19:49.027Z,2.20
2019-04-01T15:22:17.912Z,2.00
2019-04-01T15:24:48.123Z,2.67
2019-04-01T15:27:22.436Z,2.90
2019-04-01T15:29:49.973Z,2.30
2019-04-01T15:32:18.600Z,3.33
2019-04-01T15:34:47.624Z,2.40
2019-04-01T15:37:16.361Z,2.30
2019-04-01T15:39:47.209Z,1.77
2019-04-01T15:42:18.090Z,1.63
2019-04-01T15:44:47.116Z,2.50
2019-04-01T15:47:17.689Z,2.10
2019-04-01T15:49:52.183Z,2.30
2019-04-01T15:52:21.052Z,2.77
2019-04-01T15:54:49.660Z,2.10
2019-04-01T15:57:18.682Z,2.20
2019-04-01T15:59:47.408Z,2.27
2019-04-01T16:02:18.893Z,4.33
2019-04-01T16:04:47.903Z,2.00
2019-04-01T16:07:18.162Z,2.73
2019-04-01T16:09:49.644Z,2.00
2019-04-01T16:12:18.192Z,2.00
2019-04-01T16:14:49.943Z,1.60
2019-04-01T16:17:18.551Z,1.67
2019-04-01T16:19:47.161Z,1.90
2019-04-01T16:22:17.737Z,1.80
2019-04-01T16:24:46.337Z,2.53
2019-04-01T16:27:14.951Z,2.30
2019-04-01T16:29:44.288Z,2.70
2019-04-01T16:32:12.922Z,2.40
2019-04-01T16:34:42.266Z,1.83
2019-04-01T16:37:11.139Z,3.40
2019-04-01T16:39:39.754Z,2.10
2019-04-01T16:42:08.363Z,3.27
2019-04-01T16:44:36.971Z,4.20
2019-04-01T16:47:05.682Z,5.33
2019-04-01T16:49:34.295Z,3.07
2019-04-01T16:52:02.902Z,2.80
2019-04-01T16:54:31.614Z,2.40
2019-04-01T16:57:00.224Z,2.30
2019-04-01T16:59:28.941Z,2.20
2019-04-01T17:01:57.926Z,1.63
2019-04-01T17:04:26.565Z,2.60
2019-04-01T17:06:55.273Z,2.37
2019-04-01T17:09:24.295Z,2.10
2019-04-01T17:11:54.445Z,2.10
2019-04-01T17:14:24.259Z,2.97
2019-04-01T17:16:53.091Z,2.07
2019-04-01T17:19:21.704Z,2.60
2019-04-01T17:21:50.327Z,2.10
2019-04-01T17:24:18.922Z,2.17
2019-04-01T17:27:09.251Z,2.67
2019-04-01T17:29:38.387Z,2.57
2019-04-01T17:32:07.008Z,1.60
2019-04-01T17:34:35.625Z,1.60
2019-04-01T17:37:04.535Z,1.87
2019-04-01T17:39:34.189Z,2.00
2019-04-01T17:42:03.198Z,2.57
2019-04-01T17:44:31.905Z,2.40
2019-04-01T17:47:00.516Z,1.83
2019-04-01T17:49:29.226Z,1.57
2019-04-01T17:51:58.244Z,1.73
2019-04-01T17:54:26.856Z,1.60
2019-04-01T17:56:55.480Z,1.93
2019-04-01T17:59:24.087Z,1.80
2019-04-01T18:01:52.903Z,1.53
2019-04-01T18:04:22.270Z,1.80
2019-04-01T18:06:50.940Z,1.77
2019-04-01T18:09:19.650Z,2.00
2019-04-01T18:11:49.261Z,2.40
2019-04-01T18:14:19.097Z,2.10
2019-04-01T18:16:47.838Z,2.63
2019-04-01T18:19:16.560Z,2.20
2019-04-01T18:21:45.577Z,2.27
2019-04-01T18:24:16.660Z,2.30
2019-04-01T18:26:46.091Z,2.20
2019-04-01T18:29:15.514Z,2.03
2019-04-01T18:31:44.265Z,1.97
2019-04-01T18:34:13.038Z,2.33
2019-04-01T18:36:41.651Z,2.10
2019-04-01T18:39:10.256Z,1.80
2019-04-01T18:41:39.277Z,2.07
2019-04-01T18:44:07.828Z,2.20
2019-04-01T18:46:36.498Z,1.63
2019-04-01T18:49:05.213Z,1.73
2019-04-01T18:51:36.438Z,2.33
2019-04-01T18:54:05.185Z,2.03
2019-04-01T18:56:33.907Z,1.83
2019-04-01T18:59:02.927Z,1.90
2019-04-01T19:01:31.539Z,2.20
2019-04-01T19:04:00.555Z,2.10
2019-04-01T19:06:29.174Z,1.77
2019-04-01T19:09:08.799Z,1.97
2019-04-01T19:11:28.127Z,1.97
2019-04-01T19:13:56.769Z,2.50
2019-04-01T19:16:25.567Z,2.60
2019-04-01T19:18:54.180Z,1.73
2019-04-01T19:21:22.795Z,2.20
2019-04-01T19:23:51.374Z,1.97
2019-04-01T19:26:20.016Z,2.10
2019-04-01T19:28:48.619Z,1.93
2019-04-01T19:31:17.246Z,1.70
2019-04-01T19:33:47.482Z,1.77
2019-04-01T19:36:19.176Z,1.93
2019-04-01T19:38:47.747Z,2.03
2019-04-01T19:41:16.391Z,1.93
2019-04-01T19:43:45.256Z,2.27
2019-04-01T19:46:17.218Z,1.93
2019-04-01T19:48:47.490Z,2.07
2019-04-01T19:51:19.470Z,1.90
2019-04-01T19:53:48.083Z,2.20
2019-04-01T19:56:19.477Z,2.10
2019-04-01T19:58:48.092Z,2.30
2019-04-01T20:01:20.203Z,2.37
2019-04-01T20:03:49.129Z,2.30
2019-04-01T20:06:18.519Z,1.43
2019-04-01T20:08:49.699Z,1.90
2019-04-01T20:11:18.244Z,2.70
2019-04-01T20:13:49.768Z,2.27
2019-04-01T20:16:18.328Z,2.30
2019-04-01T20:18:46.938Z,2.10
2019-04-01T20:21:17.366Z,2.17
2019-04-01T20:23:50.204Z,2.10
2019-04-01T20:26:19.602Z,2.23
2019-04-01T20:28:48.264Z,2.30
2019-04-01T20:31:16.853Z,1.93
2019-04-01T20:33:45.427Z,1.90
2019-04-01T20:36:14.233Z,3.87
2019-04-01T20:38:43.256Z,2.60
2019-04-01T20:41:11.869Z,2.27
2019-04-01T20:43:40.453Z,2.17
2019-04-01T20:46:09.091Z,2.70
2019-04-01T20:48:38.111Z,2.40
2019-04-01T20:51:06.723Z,2.87
2019-04-01T20:53:35.296Z,2.83
2019-04-01T20:56:03.939Z,3.00
2019-04-01T20:58:32.549Z,2.50
2019-04-01T21:01:01.159Z,2.10
2019-04-01T21:03:30.255Z,2.00
2019-04-01T21:05:59.193Z,2.40
2019-04-01T21:08:27.774Z,2.73
2019-04-01T21:10:56.323Z,2.50
2019-04-01T21:13:24.900Z,2.63
2019-04-01T21:15:53.802Z,3.40
2019-04-01T21:18:22.719Z,3.63
2019-04-01T21:20:51.303Z,2.67
2019-04-01T21:23:19.849Z,2.93
2019-04-01T21:25:48.420Z,3.00
2019-04-01T21:28:16.973Z,2.90
2019-04-01T21:30:45.549Z,2.80
2019-04-01T21:33:16.168Z,3.00
2019-04-01T21:35:46.479Z,3.30
2019-04-01T21:38:15.031Z,2.90
2019-04-01T21:40:45.891Z,2.80
2019-04-01T21:43:17.474Z,2.60
2019-04-01T21:45:49.464Z,3.30
2019-04-01T21:48:18.383Z,2.90
2019-04-01T21:50:46.958Z,2.90
2019-04-01T21:53:15.504Z,3.20
2019-04-01T21:55:46.168Z,3.27
2019-04-01T21:58:16.460Z,3.77
2019-04-01T22:00:57.291Z,3.10
2019-04-01T22:03:25.980Z,3.70
2019-04-01T22:05:54.625Z,3.30
2019-04-01T22:08:23.179Z,3.33
2019-04-01T22:10:51.822Z,3.40
2019-04-01T22:13:20.778Z,3.30
2019-04-01T22:15:50.189Z,3.37
2019-04-01T22:18:19.186Z,3.07
2019-04-01T22:20:47.918Z,3.67
2019-04-01T22:23:18.008Z,3.40
2019-04-01T22:25:48.123Z,3.80
2019-04-01T22:28:19.605Z,3.50
2019-04-01T22:30:48.342Z,3.80
2019-04-01T22:33:16.938Z,3.63
2019-04-01T22:35:45.575Z,3.23
2019-04-01T22:38:25.064Z,3.40
2019-04-01T22:40:47.233Z,4.07
2019-04-01T22:43:17.661Z,4.50
2019-04-01T22:45:49.632Z,3.70
2019-04-01T22:48:18.199Z,3.90
2019-04-01T22:50:49.529Z,3.80
2019-04-01T22:53:18.488Z,3.10
2019-04-01T22:55:47.655Z,4.63
2019-04-01T22:58:19.402Z,3.67
2019-04-01T23:00:48.354Z,4.83
2019-04-01T23:03:16.912Z,4.13
2019-04-01T23:05:48.030Z,4.40
2019-04-01T23:08:18.113Z,3.20
2019-04-01T23:10:48.229Z,3.70
2019-04-01T23:13:20.148Z,4.50
2019-04-01T23:15:49.110Z,3.50
2019-04-01T23:18:17.656Z,3.43
2019-04-01T23:20:48.991Z,4.13
2019-04-01T23:23:17.528Z,3.50
2019-04-01T23:25:49.394Z,4.30
2019-04-01T23:28:17.949Z,3.70
2019-04-01T23:30:48.158Z,4.17
2019-04-01T23:33:17.604Z,4.40
2019-04-01T23:35:46.506Z,3.30
2019-04-01T23:38:15.195Z,4.10
2019-04-01T23:40:43.778Z,4.90
2019-04-01T23:43:12.328Z,3.60
2019-04-01T23:45:40.908Z,4.10
2019-04-01T23:48:09.465Z,4.50
2019-04-01T23:50:38.296Z,4.47
2019-04-01T23:53:07.064Z,3.87
2019-04-01T23:55:35.643Z,4.00
2019-04-01T23:58:04.264Z,4.17
